Anita N — V7RR5 — position and weather

sailwx.info

Track history (hours):
 
Tides and Currents Weather Stations Pressure Air Temp Water Temp Dewpoint Dewpoint Depression Visibility Wind Speed Wind Dir Waves Ship Positions

Anita N

Last reported at 2018-Jan-20 17:32 UTC. Time now 2018-Jan-24 04:09 UTC.
Position N 09°11' W 079°52'.

Length 190 m; draft 12 m.

Type: Cargo ship. MMSI: 538003568.

Date/timePositionNaut miles runAvg speedWind from/ knotsBaromVisibWave heightAir tempDewpointWater temp
2018-Jan-20 17:32N 09°11' W 079°52'011.3
2018-Jan-20 17:30N 09°11' W 079°53'5 9.4
2018-Jan-20 16:58N 09°15' W 079°55'1 2.4
2018-Jan-20 16:30N 09°16' W 079°55'0 0.4
2018-Jan-20 16:00N 09°16' W 079°55'0 0.4
2018-Jan-20 15:30N 09°17' W 079°55'0 0.4
2018-Jan-20 15:00N 09°17' W 079°55'0 0.6
2018-Jan-20 14:31N 09°17' W 079°55'1 2.6
2018-Jan-20 14:00N 09°18' W 079°55'2 3.1
2018-Jan-20 13:30N 09°20' W 079°55'2 3.7
2018-Jan-20 13:00N 09°22' W 079°55'2 4.5
2018-Jan-20 12:30N 09°24' W 079°55'3 6.7
2018-Jan-20 12:01N 09°27' W 079°57'1 1.6
2018-Jan-20 11:30N 09°27' W 079°58'0 0.1
2018-Jan-20 11:00N 09°27' W 079°58'0 0.2
2018-Jan-20 10:30N 09°27' W 079°58'0 0.0
2018-Jan-20 10:00N 09°27' W 079°58'0 0.1
2018-Jan-20 09:30N 09°27' W 079°58'0 0.0
2018-Jan-20 09:00N 09°27' W 079°58'0 0.1
2018-Jan-20 08:27N 09°27' W 079°58'0 0.1
2018-Jan-20 08:00N 09°27' W 079°58'0 0.1
2018-Jan-20 07:30N 09°27' W 079°58'0 0.4
2018-Jan-20 07:00N 09°27' W 079°58'1 1.7
2018-Jan-20 06:30N 09°28' W 079°59'4 8.1
2018-Jan-20 06:00N 09°31' W 079°56'510.5
2018-Jan-20 05:30N 09°35' W 079°53'811.8
2018-Jan-20 04:52N 09°42' W 079°50'  
Track history (hours):
 
Tides and Currents Weather Stations Pressure Air Temp Water Temp Dewpoint Dewpoint Depression Visibility Wind Speed Wind Dir Waves Ship Positions

Anita N

Last reported at 2018-Jan-20 17:32 UTC. Time now 2018-Jan-24 04:09 UTC.
Position N 09°11' W 079°52'.

Length 190 m; draft 12 m.

Type: Cargo ship. MMSI: 538003568.

Date/timePositionNaut miles runAvg speedWind from/ knotsBaromVisibWave heightAir tempDewpointWater temp
2018-Jan-20 17:32N 09°11' W 079°52'011.3
2018-Jan-20 17:30N 09°11' W 079°53'5 9.4
2018-Jan-20 16:58N 09°15' W 079°55'1 2.4
2018-Jan-20 16:30N 09°16' W 079°55'0 0.4
2018-Jan-20 16:00N 09°16' W 079°55'0 0.4
2018-Jan-20 15:30N 09°17' W 079°55'0 0.4
2018-Jan-20 15:00N 09°17' W 079°55'0 0.6
2018-Jan-20 14:31N 09°17' W 079°55'1 2.6
2018-Jan-20 14:00N 09°18' W 079°55'2 3.1
2018-Jan-20 13:30N 09°20' W 079°55'2 3.7
2018-Jan-20 13:00N 09°22' W 079°55'2 4.5
2018-Jan-20 12:30N 09°24' W 079°55'3 6.7
2018-Jan-20 12:01N 09°27' W 079°57'1 1.6
2018-Jan-20 11:30N 09°27' W 079°58'0 0.1
2018-Jan-20 11:00N 09°27' W 079°58'0 0.2
2018-Jan-20 10:30N 09°27' W 079°58'0 0.0
2018-Jan-20 10:00N 09°27' W 079°58'0 0.1
2018-Jan-20 09:30N 09°27' W 079°58'0 0.0
2018-Jan-20 09:00N 09°27' W 079°58'0 0.1
2018-Jan-20 08:27N 09°27' W 079°58'0 0.1
2018-Jan-20 08:00N 09°27' W 079°58'0 0.1
2018-Jan-20 07:30N 09°27' W 079°58'0 0.4
2018-Jan-20 07:00N 09°27' W 079°58'1 1.7
2018-Jan-20 06:30N 09°28' W 079°59'4 8.1
2018-Jan-20 06:00N 09°31' W 079°56'510.5
2018-Jan-20 05:30N 09°35' W 079°53'811.8
2018-Jan-20 04:52N 09°42' W 079°50'  

Dump ship's entire track history